Aviation Digital Data Service (ADDS)

Output produced by METARs form (0825 UTC 22 July 2018)
found at http://aviationweather.gov/adds/metars/
 
KBPT 220753Z AUTO 23006KT 9SM CLR 27/25 A2992 RMK AO2 SLP132 T02670250 $